createdAt,value
2022-10-30T00:01:20.291Z,66.91
2022-10-30T00:06:51.901Z,67.06
2022-10-30T00:12:25.640Z,67.64
2022-10-30T00:17:57.531Z,67.59
2022-10-30T00:23:28.867Z,67.60
2022-10-30T00:29:00.324Z,67.75
2022-10-30T00:34:32.431Z,67.84
2022-10-30T00:40:04.014Z,67.83
2022-10-30T00:45:35.852Z,67.93
2022-10-30T00:51:07.835Z,68.38
2022-10-30T00:56:39.471Z,68.77
2022-10-30T01:02:11.411Z,69.03
2022-10-30T01:07:43.259Z,69.02
2022-10-30T01:13:14.916Z,68.92
2022-10-30T01:18:46.872Z,68.91
2022-10-30T01:24:18.279Z,68.86
2022-10-30T01:29:50.012Z,68.93
2022-10-30T01:35:21.672Z,68.77
2022-10-30T01:40:53.057Z,68.83
2022-10-30T01:46:24.542Z,68.80
2022-10-30T01:51:56.620Z,68.81
2022-10-30T01:57:28.558Z,68.80
2022-10-30T02:03:00.692Z,68.80
2022-10-30T02:08:32.058Z,68.89
2022-10-30T02:14:03.825Z,68.84
2022-10-30T02:19:35.703Z,68.87
2022-10-30T02:25:07.918Z,68.89
2022-10-30T02:30:39.582Z,68.94
2022-10-30T02:36:11.936Z,68.96
2022-10-30T02:41:43.877Z,69.59
2022-10-30T02:47:15.902Z,69.54
2022-10-30T02:52:47.909Z,69.53
2022-10-30T02:58:20.119Z,69.54
2022-10-30T03:03:51.739Z,69.67
2022-10-30T03:09:23.689Z,69.77
2022-10-30T03:14:58.221Z,69.69
2022-10-30T03:20:30.056Z,69.72
2022-10-30T03:26:01.927Z,69.71
2022-10-30T03:31:33.721Z,69.75
2022-10-30T03:37:05.769Z,69.80
2022-10-30T03:42:37.818Z,69.74
2022-10-30T03:53:41.246Z,70.14
2022-10-30T03:59:12.946Z,70.04
2022-10-30T04:04:44.824Z,70.04
2022-10-30T04:10:20.952Z,70.13
2022-10-30T04:15:55.744Z,70.05
2022-10-30T04:21:20.263Z,70.10
2022-10-30T04:26:52.122Z,70.00
2022-10-30T04:32:25.687Z,70.08
2022-10-30T04:37:57.645Z,70.04
2022-10-30T04:43:29.113Z,69.99
2022-10-30T04:49:01.094Z,70.00
2022-10-30T04:54:32.733Z,70.08
2022-10-30T05:00:04.548Z,70.16
2022-10-30T05:05:36.253Z,70.16
2022-10-30T05:11:08.029Z,70.12
2022-10-30T05:16:39.848Z,70.13
2022-10-30T05:22:11.704Z,70.14
2022-10-30T05:27:43.606Z,70.16
2022-10-30T05:33:17.196Z,70.30
2022-10-30T05:38:48.907Z,70.28
2022-10-30T05:49:52.403Z,70.32
2022-10-30T05:55:24.205Z,70.48
2022-10-30T06:00:55.951Z,70.59
2022-10-30T06:03:07.286Z,70.66
2022-10-30T06:14:12.609Z,70.77
2022-10-30T06:19:44.055Z,71.10
2022-10-30T06:25:21.920Z,71.05
2022-10-30T06:30:53.656Z,71.10
2022-10-30T06:36:25.471Z,71.07
2022-10-30T06:41:57.367Z,71.01
2022-10-30T06:47:28.945Z,70.71
2022-10-30T06:53:00.811Z,70.57
2022-10-30T06:58:32.545Z,70.04
2022-10-30T07:04:04.349Z,69.77
2022-10-30T07:09:35.739Z,68.91
2022-10-30T07:15:08.298Z,68.43
2022-10-30T07:20:40.011Z,67.38
2022-10-30T07:26:11.690Z,66.89
2022-10-30T07:31:57.623Z,66.02
2022-10-30T07:37:15.233Z,65.42
2022-10-30T07:42:47.015Z,65.03
2022-10-30T07:48:18.759Z,64.24
2022-10-30T07:53:50.665Z,63.93
2022-10-30T07:59:22.377Z,63.33
2022-10-30T08:04:54.200Z,63.17
2022-10-30T08:10:26.080Z,62.28
2022-10-30T08:15:57.819Z,62.14
2022-10-30T08:21:29.508Z,61.48
2022-10-30T08:27:01.442Z,60.85
2022-10-30T08:32:33.063Z,59.45
2022-10-30T08:38:04.797Z,59.32
2022-10-30T08:43:36.562Z,58.66
2022-10-30T08:49:08.212Z,58.73
2022-10-30T08:54:40.201Z,58.42
2022-10-30T09:05:41.424Z,56.71
2022-10-30T09:11:13.188Z,56.54
2022-10-30T09:16:45.074Z,57.12
2022-10-30T09:22:17.083Z,57.49
2022-10-30T09:27:48.765Z,57.71
2022-10-30T09:33:20.443Z,57.44
2022-10-30T09:38:52.239Z,57.72
2022-10-30T09:44:24.069Z,57.89
2022-10-30T09:49:55.962Z,57.60
2022-10-30T09:55:27.625Z,57.64
2022-10-30T10:01:03.063Z,57.61
2022-10-30T10:06:31.245Z,57.70
2022-10-30T10:12:03.109Z,57.30
2022-10-30T10:17:34.820Z,57.20
2022-10-30T10:23:06.818Z,56.57
2022-10-30T10:28:38.829Z,56.67
2022-10-30T10:34:10.722Z,56.56
2022-10-30T10:39:42.244Z,56.53
2022-10-30T10:45:13.987Z,56.17
2022-10-30T10:50:45.950Z,55.04
2022-10-30T10:56:19.499Z,54.24
2022-10-30T11:01:51.938Z,53.91
2022-10-30T11:04:14.156Z,53.62
2022-10-30T11:09:45.973Z,51.94
2022-10-30T11:15:17.512Z,52.01
2022-10-30T11:20:49.353Z,52.15
2022-10-30T11:26:21.098Z,48.63
2022-10-30T11:31:52.613Z,49.59
2022-10-30T11:37:24.391Z,49.73
2022-10-30T11:42:56.446Z,50.17
2022-10-30T11:48:28.034Z,49.65
2022-10-30T11:53:59.750Z,48.19
2022-10-30T11:59:31.836Z,47.23
2022-10-30T12:05:03.580Z,47.40
2022-10-30T12:10:36.682Z,48.35
2022-10-30T12:18:30.268Z,49.14
2022-10-30T12:24:01.722Z,49.22
2022-10-30T12:30:02.501Z,49.64
2022-10-30T12:35:05.330Z,49.70
2022-10-30T12:40:37.480Z,49.65
2022-10-30T12:46:09.255Z,49.40
2022-10-30T13:02:39.909Z,47.70
2022-10-30T13:08:11.689Z,48.17
2022-10-30T13:13:43.516Z,48.14
2022-10-30T13:19:15.144Z,48.27
2022-10-30T13:24:46.866Z,47.60
2022-10-30T13:30:18.711Z,47.40
2022-10-30T13:35:50.660Z,48.11
2022-10-30T13:41:22.133Z,48.49
2022-10-30T13:46:55.392Z,49.11
2022-10-30T13:52:27.253Z,49.18
2022-10-30T13:57:58.854Z,48.99
2022-10-30T14:03:31.027Z,48.49
2022-10-30T14:09:03.167Z,48.32
2022-10-30T14:14:34.852Z,47.62
2022-10-30T14:20:12.522Z,48.17
2022-10-30T14:25:38.181Z,48.10
2022-10-30T14:36:39.355Z,47.76
2022-10-30T14:42:11.097Z,48.72
2022-10-30T14:50:04.393Z,49.52
2022-10-30T14:55:36.221Z,49.74
2022-10-30T15:01:08.018Z,49.95
2022-10-30T15:06:39.810Z,50.25
2022-10-30T15:23:10.158Z,51.63
2022-10-30T15:28:41.957Z,51.94
2022-10-30T15:34:14.195Z,52.40
2022-10-30T15:39:45.550Z,52.70
2022-10-30T15:45:17.272Z,52.95
2022-10-30T15:56:20.061Z,53.09
2022-10-30T16:01:50.325Z,53.29
2022-10-30T16:07:22.181Z,53.47
2022-10-30T16:31:44.096Z,55.15
2022-10-30T16:37:16.068Z,56.37
2022-10-30T16:53:49.205Z,56.08
2022-10-30T16:59:20.757Z,56.26
2022-10-30T17:04:55.405Z,56.37
2022-10-30T17:10:24.219Z,56.62
2022-10-30T17:21:25.332Z,57.10
2022-10-30T17:34:47.467Z,57.72
2022-10-30T17:56:03.628Z,58.49
2022-10-30T18:01:37.415Z,58.78
2022-10-30T18:07:09.012Z,59.03
2022-10-30T18:12:41.097Z,59.29
2022-10-30T18:18:12.843Z,59.39
2022-10-30T18:26:05.013Z,0.00
2022-10-30T18:31:36.945Z,59.68
2022-10-30T18:37:08.666Z,59.95
2022-10-30T18:42:40.621Z,60.13
2022-10-30T18:48:12.742Z,60.25
2022-10-30T18:53:44.673Z,60.72
2022-10-30T18:59:16.914Z,60.80
2022-10-30T19:04:48.570Z,61.04
2022-10-30T19:10:20.094Z,61.27
2022-10-30T19:15:54.800Z,61.52
2022-10-30T19:21:23.672Z,61.66
2022-10-30T19:26:55.566Z,61.87
2022-10-30T19:34:47.219Z,62.05
2022-10-30T19:40:19.028Z,62.14
2022-10-30T19:45:52.872Z,62.35
2022-10-30T19:51:22.545Z,62.45
2022-10-30T19:56:54.492Z,62.64
2022-10-30T20:02:26.485Z,62.84
2022-10-30T20:07:58.442Z,63.20
2022-10-30T20:13:29.750Z,63.26
2022-10-30T20:19:01.504Z,63.37
2022-10-30T20:24:33.003Z,63.42
2022-10-30T20:30:04.660Z,63.42
2022-10-30T20:35:36.611Z,63.49
2022-10-30T20:41:08.034Z,63.64
2022-10-30T20:46:39.644Z,63.73
2022-10-30T20:52:11.833Z,64.20
2022-10-30T20:57:43.660Z,64.43
2022-10-30T21:03:15.421Z,64.71
2022-10-30T21:08:47.061Z,64.80
2022-10-30T21:14:18.656Z,64.85
2022-10-30T21:19:50.183Z,64.89
2022-10-30T21:25:21.875Z,64.89
2022-10-30T21:30:54.027Z,65.05
2022-10-30T21:36:25.284Z,65.08
2022-10-30T21:41:56.866Z,65.18
2022-10-30T21:47:28.417Z,65.14
2022-10-30T21:53:00.079Z,65.55
2022-10-30T21:58:31.660Z,65.84
2022-10-30T22:04:03.329Z,65.96
2022-10-30T22:09:35.105Z,66.13
2022-10-30T22:15:06.798Z,66.42
2022-10-30T22:20:38.651Z,66.43
2022-10-30T22:26:10.374Z,66.43
2022-10-30T22:31:42.189Z,66.50
2022-10-30T22:37:13.703Z,66.71
2022-10-30T22:42:45.652Z,66.74
2022-10-30T22:48:17.321Z,66.89
2022-10-30T22:50:41.163Z,0.00
2022-10-30T22:56:12.671Z,66.86
2022-10-30T23:01:44.537Z,66.94
2022-10-30T23:07:16.156Z,67.08
2022-10-30T23:12:47.916Z,67.13
2022-10-30T23:18:19.840Z,67.29
2022-10-30T23:23:51.579Z,67.38
2022-10-30T23:29:23.285Z,67.38
2022-10-30T23:34:55.135Z,67.35
2022-10-30T23:40:26.916Z,67.44
2022-10-30T23:45:58.481Z,67.53
2022-10-30T23:51:30.274Z,67.54
2022-10-30T23:57:01.867Z,67.57
